Roosevelt, Oklahoma
Current Conditions -  °F | °C
As of 5:53 AM on Thursday 23 Oct 2014 (Local Time) from KHBR Reporting Station
Haze Haze  
Wind Chill: 60°   Ceiling: 4600
Heat Index: 60°   Visibility: 5mi
Dew Point: 59°   Wind: 6mph
Humidity: 96%   Direction: 190°S
Pressure: 30.09"   Gusts: NA
Location:  34.85°N, 99.02°W
Report Text: KHBR 231053Z AUTO 19005KT 5SM BR BKN046 16/15 A3009 RMK AO2 SLP183 T01560150
Loading
Personal Weather Stations






























Interactive Weather Map
Tropical Storm Tracking
New forecast layout! Learn more

10-Day Weather Forecast

Advertisements
Track Severe Weather on mobile